| time (UTC) | temp C | wind direction | speed KPH | gust KPH | rain 1hr cm | rain 24hr cm | rain mn cm | humidity % | barometer mb |
| 20260506164516 | 0 | 0 | 14.5 | 24.1 | 0.05 | 0.10 | 0.05 | 100 | 1023.0 |
| 20260506163516 | 0 | 338 | 11.3 | 20.9 | 0.05 | 0.10 | 0.05 | 100 | 1022.9 |
| 20260506162556 | 0 | 0 | 11.3 | 19.3 | 0.05 | 0.10 | 0.05 | 100 | 1022.6 |
| 20260506161516 | 0 | 325 | 0.0 | 0.0 | 0.05 | 0.10 | 0.05 | 100 | 1022.5 |
| 20260506160516 | 0 | 325 | 0.0 | 0.0 | 0.05 | 0.13 | 0.05 | 100 | 1022.6 |
| 20260506155516 | 0 | 325 | 0.0 | 0.0 | 0.00 | 0.08 | 0.00 | 100 | 1022.5 |
| 20260506154516 | 0 | 325 | 0.0 | 0.0 | 0.00 | 0.08 | 0.00 | 100 | 1022.4 |
| 20260506153516 | 0 | 325 | 0.0 | 0.0 | 0.00 | 0.08 | 0.00 | 100 | 1022.6 |
| 20260506152516 | 0 | 325 | 0.0 | 0.0 | 0.00 | 0.08 | 0.00 | 100 | 1022.5 |
| 20260506151516 | 0 | 325 | 0.0 | 0.0 | 0.00 | 0.08 | 0.00 | 100 | 1022.4 |
| 20260506150516 | 0 | 325 | 0.0 | 0.0 | 0.00 | 0.08 | 0.00 | 100 | 1022.1 |
| 20260506145536 | 0 | 325 | 0.0 | 0.0 | 0.00 | 0.08 | 0.00 | 100 | 1022.1 |
| 20260506144536 | 0 | 325 | 0.0 | 0.0 | 0.00 | 0.08 | 0.00 | 100 | 1022.1 |
| 20260506143516 | 0 | 325 | 0.0 | 0.0 | 0.00 | 0.08 | 0.00 | 100 | 1022.0 |
| 20260506142516 | 0 | 325 | 0.0 | 0.0 | 0.00 | 0.08 | 0.00 | 100 | 1021.8 |
| 20260506141516 | 0 | 325 | 0.0 | 0.0 | 0.00 | 0.08 | 0.00 | 100 | 1021.8 |
| 20260506140516 | 0 | 325 | 0.0 | 0.0 | 0.00 | 0.08 | 0.00 | 100 | 1021.8 |
| 20260506135516 | 0 | 325 | 0.0 | 0.0 | 0.00 | 0.10 | 0.00 | 100 | 1021.7 |
| 20260506134516 | 0 | 325 | 0.0 | 0.0 | 0.00 | 0.10 | 0.00 | 100 | 1021.7 |
| 20260506133516 | 0 | 325 | 0.0 | 0.0 | 0.00 | 0.10 | 0.00 | 100 | 1021.5 |
| 20260506132516 | 0 | 325 | 0.0 | 0.0 | 0.00 | 0.10 | 0.00 | 100 | 1021.3 |
| 20260506131556 | 0 | 325 | 0.0 | 0.0 | 0.00 | 0.10 | 0.00 | 100 | 1021.4 |
| 20260506130516 | 0 | 325 | 0.0 | 0.0 | 0.00 | 0.10 | 0.00 | 100 | 1021.1 |
| 20260506125516 | 0 | 325 | 0.0 | 0.0 | 0.00 | 0.10 | 0.00 | 100 | 1020.7 |
| 20260506124556 | 0 | 325 | 0.0 | 0.0 | 0.00 | 0.13 | 0.00 | 100 | 1020.5 |
| 20260506123516 | 0 | 325 | 0.0 | 0.0 | 0.00 | 0.13 | 0.00 | 100 | 1020.4 |
| 20260506122516 | 0 | 325 | 0.0 | 0.0 | 0.00 | 0.13 | 0.00 | 100 | 1020.4 |
| 20260506121516 | 0 | 325 | 0.0 | 0.0 | 0.00 | 0.13 | 0.00 | 100 | 1020.4 |
| 20260506120516 | 0 | 325 | 0.0 | 0.0 | 0.00 | 0.13 | 0.00 | 100 | 1020.3 |
| 20260506115516 | 0 | 325 | 0.0 | 0.0 | 0.00 | 0.13 | 0.00 | 100 | 1020.2 |
| 20260506114536 | 0 | 325 | 0.0 | 0.0 | 0.00 | 0.13 | 0.00 | 100 | 1020.0 |
| 20260506113516 | 0 | 325 | 0.0 | 0.0 | 0.00 | 0.15 | 0.00 | 100 | 1019.9 |
| 20260506112516 | 0 | 325 | 0.0 | 0.0 | 0.00 | 0.15 | 0.00 | 100 | 1019.9 |
| 20260506111516 | 0 | 325 | 0.0 | 0.0 | 0.00 | 0.15 | 0.00 | 100 | 1019.6 |
| 20260506110516 | 0 | 325 | 0.0 | 0.0 | 0.00 | 0.18 | 0.00 | 100 | 1019.5 |
| 20260506105516 | 0 | 325 | 0.0 | 0.0 | 0.00 | 0.18 | 0.00 | 100 | 1019.5 |
| 20260506104516 | 0 | 325 | 0.0 | 0.0 | 0.00 | 0.18 | 0.00 | 100 | 1019.9 |
| 20260506103516 | 0 | 325 | 0.0 | 0.0 | 0.00 | 0.18 | 0.00 | 100 | 1019.7 |
| 20260506102516 | 0 | 325 | 0.0 | 0.0 | 0.00 | 0.18 | 0.00 | 100 | 1019.9 |
| 20260506101516 | 0 | 325 | 0.0 | 0.0 | 0.00 | 0.18 | 0.00 | 100 | 1020.3 |
| 20260506100516 | 0 | 325 | 0.0 | 0.0 | 0.00 | 0.18 | 0.00 | 100 | 1020.9 |
| 20260506095536 | 0 | 325 | 0.0 | 0.0 | 0.00 | 0.18 | 0.00 | 100 | 1020.7 |
| 20260506094516 | 0 | 325 | 0.0 | 0.0 | 0.00 | 0.18 | 0.00 | 100 | 1020.6 |
| 20260506093516 | 0 | 325 | 0.0 | 0.0 | 0.00 | 0.18 | 0.00 | 100 | 1020.8 |
| 20260506092516 | 0 | 325 | 0.0 | 0.0 | 0.00 | 0.18 | 0.00 | 100 | 1020.6 |
| 20260506091516 | 0 | 325 | 0.0 | 0.0 | 0.00 | 0.18 | 0.00 | 100 | 1020.2 |
| 20260506090516 | 0 | 325 | 0.0 | 0.0 | 0.00 | 0.18 | 0.00 | 100 | 1020.0 |
| 20260506085515 | 0 | 325 | 0.0 | 0.0 | 0.00 | 0.18 | 0.00 | 100 | 1019.9 |
| 20260506084516 | 0 | 325 | 0.0 | 0.0 | 0.00 | 0.18 | 0.00 | 100 | 1020.0 |
| 20260506083515 | 0 | 325 | 0.0 | 0.0 | 0.00 | 0.18 | 0.00 | 100 | 1020.1 |
| 20260506082516 | 0 | 325 | 0.0 | 0.0 | 0.00 | 0.18 | 0.00 | 100 | 1020.0 |
| 20260506081606 | 0 | 0.0 | 0.0 | 0.00 | 0.18 | 0.00 | 100 | 1020.2 | |
| 20260506081015 | 0 | 325 | 0.0 | 0.0 | 0.00 | 0.18 | 0.00 | 100 | 1020.3 |
| 20260506073015 | 0 | 325 | 0.0 | 0.0 | 0.00 | 0.18 | 0.00 | 100 | 1019.9 |
| 20260506072016 | 0 | 325 | 0.0 | 0.0 | 0.00 | 0.18 | 0.00 | 100 | 1019.9 |
| 20260506071016 | 0 | 325 | 0.0 | 0.0 | 0.00 | 0.18 | 0.00 | 100 | 1019.9 |
| 20260506062016 | 0 | 0 | 3.2 | 6.4 | 0.00 | 0.18 | 0.00 | 100 | 1019.5 |
| 20260506061016 | 0 | 0 | 1.6 | 4.8 | 0.00 | 0.18 | 0.00 | 100 | 1019.2 |
| 20260506051017 | 0 | 0 | 4.8 | 9.7 | 0.00 | 0.18 | 0.18 | 100 | 1018.3 |
| 20260506045017 | 0 | 338 | 1.6 | 3.2 | 0.00 | 0.18 | 0.18 | 100 | 1018.1 |
| 20260506044017 | 0 | 338 | 4.8 | 9.7 | 0.00 | 0.18 | 0.18 | 100 | 1018.0 |
| 20260506043017 | 0 | 338 | 4.8 | 8.0 | 0.00 | 0.18 | 0.18 | 100 | 1018.1 |
| 20260506042017 | 0 | 0 | 3.2 | 6.4 | 0.00 | 0.18 | 0.18 | 100 | 1018.2 |
| 20260506041017 | 0 | 338 | 3.2 | 8.0 | 0.00 | 0.20 | 0.18 | 100 | 1018.2 |
| 20260506040017 | 0 | 315 | 1.6 | 6.4 | 0.00 | 0.20 | 0.18 | 100 | 1017.9 |
| 20260506035037 | 0 | 338 | 4.8 | 12.9 | 0.00 | 0.25 | 0.18 | 100 | 1017.9 |
| 20260506034017 | 0 | 0 | 4.8 | 9.7 | 0.00 | 0.28 | 0.18 | 100 | 1017.7 |
| 20260506033017 | 0 | 338 | 6.4 | 12.9 | 0.00 | 0.30 | 0.18 | 100 | 1017.5 |
| 20260506032016 | 0 | 0 | 6.4 | 12.9 | 0.00 | 0.33 | 0.18 | 100 | 1017.2 |
| 20260506031017 | 0 | 23 | 3.2 | 9.7 | 0.00 | 0.36 | 0.18 | 100 | 1016.8 |
| 20260506030037 | 0 | 338 | 9.7 | 14.5 | 0.00 | 0.38 | 0.18 | 100 | 1016.7 |
| 20260506025016 | 0 | 0 | 8.0 | 14.5 | 0.00 | 0.38 | 0.18 | 100 | 1016.4 |
| 20260506024017 | 0 | 338 | 8.0 | 14.5 | 0.00 | 0.38 | 0.18 | 100 | 1016.3 |
| 20260506023036 | 0 | 338 | 6.4 | 12.9 | 0.00 | 0.38 | 0.18 | 100 | 1015.7 |
| 20260506022017 | 0 | 338 | 9.7 | 16.1 | 0.00 | 0.38 | 0.18 | 100 | 1015.5 |
| 20260506021057 | 0 | 338 | 6.4 | 12.9 | 0.00 | 0.38 | 0.18 | 100 | 1015.0 |
| 20260506020036 | 0 | 338 | 6.4 | 12.9 | 0.00 | 0.38 | 0.18 | 100 | 1014.8 |
| 20260506015037 | 0 | 338 | 11.3 | 20.9 | 0.00 | 0.38 | 0.18 | 100 | 1014.7 |
| 20260506014017 | 0 | 338 | 11.3 | 17.7 | 0.00 | 0.38 | 0.18 | 100 | 1014.4 |
| 20260506013016 | 0 | 315 | 8.0 | 14.5 | 0.00 | 0.38 | 0.18 | 100 | 1014.9 |
| 20260506012017 | 0 | 315 | 9.7 | 17.7 | 0.00 | 0.38 | 0.18 | 100 | 1014.8 |
| 20260506011017 | 0 | 315 | 8.0 | 14.5 | 0.00 | 0.38 | 0.18 | 100 | 1014.6 |
| 20260506010016 | 0 | 338 | 11.3 | 19.3 | 0.00 | 0.38 | 0.18 | 100 | 1014.4 |
| 20260506005017 | 0 | 338 | 11.3 | 22.5 | 0.00 | 0.38 | 0.18 | 100 | 1014.5 |
| 20260506004017 | 0 | 315 | 11.3 | 20.9 | 0.00 | 0.38 | 0.18 | 100 | 1014.3 |
| 20260506003017 | 0 | 338 | 12.9 | 22.5 | 0.00 | 0.38 | 0.18 | 99 | 1014.1 |
| 20260506002017 | 0 | 338 | 12.9 | 27.4 | 0.00 | 0.46 | 0.18 | 99 | 1013.8 |
| 20260506001017 | 0 | 338 | 12.9 | 24.1 | 0.00 | 0.46 | 0.18 | 99 | 1013.7 |
| 20260506000016 | 0 | 338 | 11.3 | 22.5 | 0.00 | 0.48 | 0.18 | 99 | 1013.5 |
| 20260505235037 | 0 | 338 | 12.9 | 25.7 | 0.00 | 0.48 | 0.18 | 99 | 1013.7 |
| 20260505234016 | 0 | 338 | 14.5 | 25.7 | 0.00 | 0.48 | 0.18 | 99 | 1013.5 |
| 20260505232036 | 0 | 338 | 19.3 | 25.7 | 0.00 | 0.48 | 0.18 | 98 | 1013.6 |
| 20260505231016 | 0 | 338 | 22.5 | 33.8 | 0.00 | 0.48 | 0.18 | 97 | 1013.2 |
| 20260505230016 | 0 | 0 | 19.3 | 32.2 | 0.03 | 0.48 | 0.18 | 97 | 1012.9 |
| 20260505225016 | 0 | 338 | 19.3 | 30.6 | 0.03 | 0.48 | 0.18 | 96 | 1013.3 |
| 20260505224016 | 0 | 338 | 20.9 | 33.8 | 0.03 | 0.48 | 0.18 | 96 | 1013.5 |
| 20260505223016 | 0 | 338 | 22.5 | 37.0 | 0.03 | 0.48 | 0.18 | 96 | 1013.1 |
| 20260505222036 | 1 | 338 | 20.9 | 35.4 | 0.03 | 0.48 | 0.18 | 94 | 1013.3 |
| 20260505221016 | 2 | 338 | 12.9 | 29.0 | 0.03 | 0.48 | 0.18 | 94 | 1013.6 |
| 20260505220017 | 2 | 23 | 9.7 | 17.7 | 0.00 | 0.46 | 0.15 | 94 | 1013.4 |
| 20260505215016 | 3 | 23 | 11.3 | 24.1 | 0.00 | 0.46 | 0.15 | 93 | 1013.8 |
| 20260505214017 | 3 | 45 | 11.3 | 20.9 | 0.03 | 0.46 | 0.15 | 92 | 1013.8 |
| 20260505213016 | 3 | 315 | 8.0 | 14.5 | 0.03 | 0.46 | 0.15 | 93 | 1014.2 |
| 20260505212037 | 3 | 45 | 4.8 | 12.9 | 0.03 | 0.46 | 0.15 | 94 | 1014.1 |
| 20260505211017 | 3 | 23 | 8.0 | 14.5 | 0.03 | 0.46 | 0.15 | 94 | 1013.8 |
| 20260505210016 | 3 | 68 | 8.0 | 16.1 | 0.03 | 0.46 | 0.15 | 95 | 1014.1 |
| 20260505205016 | 3 | 23 | 9.7 | 16.1 | 0.03 | 0.46 | 0.15 | 94 | 1014.9 |
| 20260505204036 | 3 | 45 | 8.0 | 14.5 | 0.00 | 0.43 | 0.13 | 94 | 1015.4 |
| 20260505203016 | 3 | 45 | 9.7 | 19.3 | 0.00 | 0.43 | 0.13 | 95 | 1015.6 |
| 20260505202016 | 3 | 23 | 11.3 | 17.7 | 0.00 | 0.43 | 0.13 | 94 | 1015.2 |
| 20260505201016 | 3 | 45 | 8.0 | 16.1 | 0.00 | 0.43 | 0.13 | 94 | 1015.1 |
| 20260505200016 | 3 | 0 | 9.7 | 16.1 | 0.00 | 0.43 | 0.13 | 94 | 1015.0 |
| 20260505195056 | 3 | 68 | 6.4 | 14.5 | 0.00 | 0.43 | 0.13 | 94 | 1015.1 |
| 20260505194017 | 3 | 90 | 4.8 | 12.9 | 0.00 | 0.43 | 0.13 | 95 | 1015.0 |
| 20260505193016 | 3 | 90 | 6.4 | 12.9 | 0.00 | 0.43 | 0.13 | 93 | 1014.9 |
| 20260505192016 | 3 | 90 | 6.4 | 16.1 | 0.00 | 0.43 | 0.13 | 93 | 1014.8 |
| 20260505191016 | 3 | 90 | 1.6 | 4.8 | 0.00 | 0.43 | 0.13 | 95 | 1014.9 |
| 20260505190036 | 3 | 338 | 6.4 | 8.0 | 0.00 | 0.43 | 0.13 | 95 | 1014.8 |
| 20260505185016 | 2 | 45 | 6.4 | 11.3 | 0.00 | 0.43 | 0.13 | 96 | 1015.0 |
| 20260505184016 | 2 | 45 | 11.3 | 16.1 | 0.00 | 0.43 | 0.13 | 95 | 1015.0 |
| 20260505183016 | 2 | 45 | 4.8 | 16.1 | 0.00 | 0.43 | 0.13 | 96 | 1015.2 |
| 20260505182017 | 2 | 45 | 6.4 | 14.5 | 0.00 | 0.43 | 0.13 | 95 | 1015.2 |
| 20260505181016 | 2 | 23 | 8.0 | 16.1 | 0.00 | 0.43 | 0.13 | 95 | 1015.0 |
| 20260505180036 | 2 | 0 | 6.4 | 14.5 | 0.00 | 0.43 | 0.13 | 95 | 1015.1 |
| 20260505175016 | 2 | 68 | 6.4 | 12.9 | 0.00 | 0.43 | 0.13 | 95 | 1015.2 |
| 20260505174016 | 2 | 68 | 4.8 | 9.7 | 0.00 | 0.43 | 0.13 | 95 | 1015.1 |
| 20260505173016 | 2 | 45 | 4.8 | 9.7 | 0.00 | 0.43 | 0.13 | 95 | 1015.1 |
| 20260505172016 | 2 | 45 | 4.8 | 11.3 | 0.00 | 0.43 | 0.13 | 95 | 1015.1 |
| 20260505171016 | 2 | 45 | 4.8 | 11.3 | 0.00 | 0.43 | 0.13 | 95 | 1015.0 |
| 20260505170016 | 2 | 338 | 4.8 | 11.3 | 0.03 | 0.43 | 0.13 | 95 | 1014.8 |